Time;durP1;ratioP1;P1;durP2;ratioP2;P2;SDS_P1;SDS_P2;PMS_P1;PMS_P2;Temp;Humidity;BMP_temperature;BMP_pressure;BME280_temperature;BME280_humidity;BME280_pressure;Samples;Min_cycle;Max_cycle;Signal;HPM_P1;HPM_P2
2023/05/28 00:00:08;;;;;;;21.67;6.22;;;13.30;99.70;;;;;;5058322;28;20038;-71
2023/05/28 00:02:34;;;;;;;24.08;6.55;;;13.30;99.60;;;;;;5075101;28;20097;-71
2023/05/28 00:05:00;;;;;;;21.17;6.20;;;13.20;99.80;;;;;;5075385;28;20032;-71
2023/05/28 00:07:28;;;;;;;15.68;5.75;;;13.20;99.90;;;;;;5075132;28;20079;-71
2023/05/28 00:09:55;;;;;;;16.33;6.55;;;13.20;99.90;;;;;;5075386;28;20060;-71
2023/05/28 00:12:21;;;;;;;18.60;6.32;;;13.20;99.90;;;;;;5058677;28;20035;-71
2023/05/28 00:14:47;;;;;;;19.25;6.43;;;13.10;99.90;;;;;;5075072;28;20518;-71
2023/05/28 00:17:15;;;;;;;21.00;6.57;;;13.10;99.90;;;;;;5074923;28;20044;-71
2023/05/28 00:19:41;;;;;;;24.85;6.40;;;13.10;99.90;;;;;;5075325;28;20114;-71
2023/05/28 00:22:07;;;;;;;21.58;6.47;;;13.10;99.90;;;;;;5074911;28;20040;-71
2023/05/28 00:24:33;;;;;;;19.42;6.32;;;13.10;99.90;;;;;;5074978;28;20032;-71
2023/05/28 00:26:59;;;;;;;26.25;7.70;;;13.00;99.90;;;;;;5074897;28;20164;-71
2023/05/28 00:29:26;;;;;;;19.60;5.43;;;13.00;99.90;;;;;;5074882;28;20040;-71
2023/05/28 00:31:55;;;;;;;21.10;6.25;;;12.90;99.90;;;;;;5058647;28;20055;-71
2023/05/28 00:34:24;;;;;;;17.15;6.03;;;12.90;99.90;;;;;;5062311;28;20040;-71
2023/05/28 00:36:50;;;;;;;20.30;6.30;;;12.90;99.90;;;;;;5078848;28;20036;-71
2023/05/28 00:39:17;;;;;;;21.77;6.43;;;12.90;99.90;;;;;;5062127;28;20442;-71
2023/05/28 00:41:43;;;;;;;18.95;6.15;;;12.90;99.90;;;;;;5078694;28;20475;-71
2023/05/28 00:44:12;;;;;;;22.00;6.32;;;12.80;99.90;;;;;;5078688;28;20100;-71
2023/05/28 00:46:42;;;;;;;19.90;6.38;;;12.80;99.90;;;;;;5078653;28;20044;-71
2023/05/28 00:49:09;;;;;;;24.15;6.65;;;12.80;99.90;;;;;;5078647;28;20500;-71
2023/05/28 00:51:35;;;;;;;17.67;6.63;;;12.80;99.90;;;;;;5078766;28;20151;-71
2023/05/28 00:54:02;;;;;;;16.10;5.80;;;12.80;99.90;;;;;;5078509;28;20553;-71
2023/05/28 00:56:28;;;;;;;17.60;5.93;;;12.70;99.90;;;;;;5078396;28;20040;-71
2023/05/28 00:58:55;;;;;;;15.70;6.20;;;12.70;99.90;;;;;;5078433;28;20040;-71
2023/05/28 01:01:24;;;;;;;15.85;5.95;;;12.70;99.90;;;;;;5078191;28;20040;-71
2023/05/28 01:03:51;;;;;;;16.90;5.53;;;12.70;99.90;;;;;;5078430;28;20035;-71
2023/05/28 01:06:17;;;;;;;14.95;6.05;;;12.60;99.90;;;;;;5078305;28;20043;-71
2023/05/28 01:08:43;;;;;;;19.77;6.00;;;12.60;99.90;;;;;;5078283;28;20082;-71
2023/05/28 01:11:13;;;;;;;14.80;5.82;;;12.60;99.90;;;;;;5078094;28;20032;-71
2023/05/28 01:13:41;;;;;;;20.50;6.05;;;12.60;99.90;;;;;;5078592;28;20122;-71
2023/05/28 01:16:06;;;;;;;20.83;6.35;;;12.60;99.90;;;;;;5078125;28;20094;-71
2023/05/28 01:18:33;;;;;;;19.95;6.45;;;12.60;99.90;;;;;;5078030;28;20032;-71
2023/05/28 01:21:02;;;;;;;18.90;5.97;;;12.60;99.90;;;;;;5078269;28;20126;-71
2023/05/28 01:23:29;;;;;;;17.38;6.75;;;12.60;99.90;;;;;;5078006;28;20036;-71
2023/05/28 01:25:56;;;;;;;18.30;6.10;;;12.60;99.90;;;;;;5061190;28;20484;-71
2023/05/28 01:28:22;;;;;;;18.63;6.38;;;12.60;99.90;;;;;;5078120;28;20036;-71
2023/05/28 01:30:48;;;;;;;20.48;5.72;;;12.60;99.90;;;;;;5077717;28;20480;-71
2023/05/28 01:33:15;;;;;;;18.05;6.38;;;12.60;99.90;;;;;;5077817;28;20083;-71
2023/05/28 01:35:41;;;;;;;19.38;6.22;;;12.50;99.90;;;;;;5077677;28;20100;-71
2023/05/28 01:38:10;;;;;;;20.92;6.05;;;12.60;99.90;;;;;;5077722;28;20538;-70
2023/05/28 01:40:38;;;;;;;21.98;6.38;;;12.60;99.90;;;;;;5077561;28;20040;-71
2023/05/28 01:43:03;;;;;;;18.60;6.47;;;12.60;99.90;;;;;;5077510;28;20122;-71
2023/05/28 01:45:30;;;;;;;19.35;6.90;;;12.60;99.90;;;;;;5060287;28;20094;-71
2023/05/28 01:47:56;;;;;;;16.10;6.53;;;12.60;99.90;;;;;;5077531;28;20044;-71
2023/05/28 01:50:22;;;;;;;18.83;6.40;;;12.60;99.90;;;;;;5060685;28;20040;-71
2023/05/28 01:52:48;;;;;;;20.35;6.03;;;12.60;99.90;;;;;;5077474;28;20085;-71
2023/05/28 01:55:14;;;;;;;20.45;6.90;;;12.50;99.90;;;;;;5077629;28;20094;-71
2023/05/28 01:57:40;;;;;;;21.95;6.28;;;12.60;99.90;;;;;;5077362;28;20562;-71
2023/05/28 02:00:07;;;;;;;19.88;6.03;;;12.50;99.90;;;;;;5077519;28;20036;-71
2023/05/28 02:02:34;;;;;;;20.58;6.93;;;12.50;99.90;;;;;;5060595;28;20060;-71
2023/05/28 02:05:00;;;;;;;17.98;6.38;;;12.50;99.90;;;;;;5061342;28;20123;-71
2023/05/28 02:07:26;;;;;;;22.60;6.78;;;12.50;99.90;;;;;;5060515;28;20406;-71
2023/05/28 02:09:52;;;;;;;22.60;6.75;;;12.50;99.90;;;;;;5077137;28;20040;-71
2023/05/28 02:12:17;;;;;;;18.17;6.75;;;12.50;99.90;;;;;;5077000;28;20040;-71
2023/05/28 02:14:47;;;;;;;20.02;5.95;;;12.50;99.90;;;;;;5077000;28;20055;-71
2023/05/28 02:17:12;;;;;;;17.00;7.00;;;12.50;99.90;;;;;;5076891;28;20040;-71
2023/05/28 02:19:38;;;;;;;20.90;6.80;;;12.50;99.90;;;;;;5076958;28;20123;-71
2023/05/28 02:22:10;;;;;;;23.77;6.90;;;12.50;99.90;;;;;;5076767;28;20044;-71
2023/05/28 02:24:36;;;;;;;21.50;5.90;;;12.50;99.90;;;;;;5076871;28;20054;-71
2023/05/28 02:27:03;;;;;;;17.85;6.15;;;12.50;99.90;;;;;;5060142;28;20119;-71
2023/05/28 02:29:29;;;;;;;18.08;6.22;;;12.50;99.90;;;;;;5076761;28;20055;-71
2023/05/28 02:31:55;;;;;;;21.58;7.18;;;12.50;99.90;;;;;;5076584;28;20040;-71
2023/05/28 02:34:20;;;;;;;18.60;7.20;;;12.50;99.90;;;;;;5076603;28;20036;-71
2023/05/28 02:36:46;;;;;;;21.15;6.40;;;12.50;99.90;;;;;;5076480;28;20039;-71
2023/05/28 02:39:12;;;;;;;18.80;7.20;;;12.50;99.90;;;;;;5076518;28;20111;-71
2023/05/28 02:41:37;;;;;;;16.63;6.00;;;12.50;99.90;;;;;;5076382;28;20039;-71
2023/05/28 02:44:03;;;;;;;17.63;6.68;;;12.50;99.90;;;;;;5076683;28;20047;-71
2023/05/28 02:46:28;;;;;;;17.83;6.88;;;12.50;99.90;;;;;;5076448;28;20124;-71
2023/05/28 02:48:54;;;;;;;19.85;6.78;;;12.50;99.90;;;;;;5076328;28;20067;-71
2023/05/28 02:51:20;;;;;;;15.90;5.72;;;12.50;99.90;;;;;;5076481;28;20039;-71
2023/05/28 02:53:45;;;;;;;20.65;6.75;;;12.50;99.90;;;;;;5076270;28;20085;-71
2023/05/28 02:56:11;;;;;;;23.27;6.97;;;12.50;99.90;;;;;;5075287;28;20028;-71
2023/05/28 02:58:37;;;;;;;18.90;6.15;;;12.50;99.90;;;;;;5059520;28;20122;-71
2023/05/28 03:01:03;;;;;;;16.70;6.03;;;12.50;99.90;;;;;;5075916;28;20047;-71
2023/05/28 03:03:29;;;;;;;17.63;6.07;;;12.50;99.90;;;;;;5059422;28;20169;-71
2023/05/28 03:05:54;;;;;;;22.50;6.63;;;12.50;99.90;;;;;;5076080;28;20078;-71
2023/05/28 03:08:20;;;;;;;19.70;6.20;;;12.50;99.90;;;;;;5076177;28;20047;-71
2023/05/28 03:10:46;;;;;;;18.23;6.40;;;12.50;99.90;;;;;;5059131;28;20563;-71
2023/05/28 03:13:12;;;;;;;18.50;5.88;;;12.50;99.90;;;;;;5076082;28;20032;-71
2023/05/28 03:15:37;;;;;;;16.35;7.03;;;12.50;99.90;;;;;;5075779;28;20385;-71
2023/05/28 03:18:06;;;;;;;19.83;7.18;;;12.50;99.90;;;;;;5075761;28;20111;-71
2023/05/28 03:20:31;;;;;;;17.60;6.15;;;12.40;99.90;;;;;;5075697;28;20039;-71
2023/05/28 03:22:57;;;;;;;17.48;6.10;;;12.40;99.90;;;;;;5075988;28;20145;-71
2023/05/28 03:25:25;;;;;;;14.90;6.70;;;12.40;99.90;;;;;;5075946;28;20507;-71
2023/05/28 03:27:51;;;;;;;18.17;6.00;;;12.40;99.90;;;;;;5075931;28;20443;-71
2023/05/28 03:30:17;;;;;;;20.88;6.82;;;12.40;99.90;;;;;;5075585;28;20118;-71
2023/05/28 03:32:43;;;;;;;19.00;6.43;;;12.40;99.90;;;;;;5075642;28;20075;-71
2023/05/28 03:35:08;;;;;;;19.67;6.28;;;12.40;99.90;;;;;;5075573;28;20043;-71
2023/05/28 03:37:34;;;;;;;17.92;6.38;;;12.40;99.90;;;;;;5075359;28;20090;-71
2023/05/28 03:40:00;;;;;;;15.55;5.85;;;12.40;99.90;;;;;;5075391;28;20105;-71
2023/05/28 03:42:25;;;;;;;20.63;6.85;;;12.40;99.90;;;;;;5075492;28;20043;-71
2023/05/28 03:44:51;;;;;;;16.73;6.10;;;12.40;99.90;;;;;;5075609;28;20222;-71
2023/05/28 03:47:17;;;;;;;20.05;6.45;;;12.40;99.90;;;;;;5075620;28;20381;-71
2023/05/28 03:49:42;;;;;;;16.48;6.28;;;12.40;99.90;;;;;;5075357;28;20043;-71
2023/05/28 03:52:09;;;;;;;17.85;6.85;;;12.30;99.90;;;;;;5075240;28;20040;-71
2023/05/28 03:54:35;;;;;;;19.15;6.03;;;12.30;99.90;;;;;;5058908;28;20040;-71
2023/05/28 03:57:01;;;;;;;25.30;6.97;;;12.30;99.90;;;;;;5075190;28;20123;-71
2023/05/28 03:59:27;;;;;;;16.42;6.30;;;12.30;99.90;;;;;;5075273;28;20119;-71
2023/05/28 04:01:52;;;;;;;20.85;5.97;;;12.30;99.90;;;;;;5075281;28;20040;-71
2023/05/28 04:04:18;;;;;;;16.35;6.22;;;12.30;99.90;;;;;;5075217;28;20451;-71
2023/05/28 04:06:44;;;;;;;17.10;6.10;;;12.30;99.90;;;;;;5074876;28;20083;-71
2023/05/28 04:09:09;;;;;;;18.08;6.05;;;12.30;99.90;;;;;;5075138;28;20043;-71
2023/05/28 04:11:37;;;;;;;18.95;5.80;;;12.30;99.90;;;;;;5075070;28;20040;-71
2023/05/28 04:14:03;;;;;;;15.93;6.18;;;12.30;99.90;;;;;;5075067;28;20048;-71
2023/05/28 04:16:29;;;;;;;18.55;6.45;;;12.30;99.90;;;;;;5074990;28;20501;-71
2023/05/28 04:18:54;;;;;;;20.63;6.38;;;12.30;99.90;;;;;;5075270;28;20044;-71
2023/05/28 04:21:22;;;;;;;17.55;6.10;;;12.30;99.90;;;;;;5075274;28;20430;-71
2023/05/28 04:23:47;;;;;;;20.45;6.93;;;12.30;99.90;;;;;;5075040;28;20072;-71
2023/05/28 04:26:14;;;;;;;13.80;6.13;;;12.30;99.90;;;;;;5075035;28;20074;-71
2023/05/28 04:28:40;;;;;;;20.33;5.80;;;12.30;99.90;;;;;;5075189;28;20036;-71
2023/05/28 04:31:06;;;;;;;19.95;6.50;;;12.30;99.90;;;;;;5074832;28;20096;-71
2023/05/28 04:33:32;;;;;;;17.95;5.97;;;12.30;99.90;;;;;;5075150;28;20059;-71
2023/05/28 04:35:59;;;;;;;22.52;6.50;;;12.40;99.90;;;;;;5075111;28;20492;-71
2023/05/28 04:38:28;;;;;;;18.17;6.03;;;12.30;99.90;;;;;;5092888;28;20047;-71
2023/05/28 04:40:55;;;;;;;18.67;6.10;;;12.40;99.90;;;;;;5075008;28;20056;-71
2023/05/28 04:43:21;;;;;;;15.88;6.05;;;12.40;99.90;;;;;;5074847;28;20032;-71
2023/05/28 04:45:47;;;;;;;19.27;6.28;;;12.40;99.90;;;;;;5074847;28;20048;-71
2023/05/28 04:48:13;;;;;;;22.88;6.70;;;12.40;99.90;;;;;;5074988;28;20047;-71
2023/05/28 04:50:40;;;;;;;15.38;5.68;;;12.40;99.90;;;;;;5075060;28;20044;-71
2023/05/28 04:53:05;;;;;;;20.52;6.28;;;12.50;99.90;;;;;;5074714;28;20055;-71
2023/05/28 04:55:31;;;;;;;17.55;6.20;;;12.50;99.90;;;;;;5075595;28;20036;-71
2023/05/28 04:57:57;;;;;;;23.88;6.22;;;12.50;99.90;;;;;;5057976;28;20032;-71
2023/05/28 05:00:24;;;;;;;20.50;6.43;;;12.60;99.90;;;;;;5074439;28;20071;-71
2023/05/28 05:02:50;;;;;;;17.38;6.03;;;12.60;99.90;;;;;;5074716;28;20119;-71
2023/05/28 05:05:16;;;;;;;17.30;5.60;;;12.70;99.90;;;;;;5074911;28;20523;-71
2023/05/28 05:07:42;;;;;;;20.67;5.88;;;12.70;99.90;;;;;;5074564;28;20044;-71
2023/05/28 05:10:09;;;;;;;13.55;5.45;;;12.80;99.90;;;;;;5074778;28;20043;-70
2023/05/28 05:12:35;;;;;;;19.23;5.95;;;12.80;99.90;;;;;;5074848;28;20044;-71
2023/05/28 05:15:01;;;;;;;17.02;6.18;;;12.90;99.90;;;;;;5057820;28;20040;-71
2023/05/28 05:17:26;;;;;;;16.95;5.53;;;12.90;99.90;;;;;;5057905;28;20043;-71
2023/05/28 05:19:52;;;;;;;20.95;5.75;;;13.00;99.90;;;;;;5076476;28;20416;-71
2023/05/28 05:22:18;;;;;;;17.65;5.90;;;13.00;99.90;;;;;;5078020;28;20036;-71
2023/05/28 05:24:46;;;;;;;16.80;5.72;;;13.00;99.90;;;;;;5061583;28;20039;-71
2023/05/28 05:27:12;;;;;;;20.02;5.80;;;13.10;99.90;;;;;;5077859;28;20504;-71
2023/05/28 05:29:37;;;;;;;17.10;5.97;;;13.20;99.90;;;;;;5077909;28;20051;-71
2023/05/28 05:32:03;;;;;;;14.35;5.60;;;13.30;99.90;;;;;;5077938;28;20039;-71
2023/05/28 05:34:29;;;;;;;15.45;5.40;;;13.30;99.90;;;;;;5078046;28;20040;-71
2023/05/28 05:36:54;;;;;;;12.95;5.15;;;13.40;99.90;;;;;;5077745;28;20507;-71
2023/05/28 05:39:20;;;;;;;18.83;5.40;;;13.50;99.90;;;;;;5078019;28;20044;-71
2023/05/28 05:41:45;;;;;;;19.13;5.25;;;13.60;99.90;;;;;;5077693;28;20032;-71
2023/05/28 05:44:11;;;;;;;17.60;5.18;;;13.70;99.90;;;;;;5077976;28;20043;-71
2023/05/28 05:46:36;;;;;;;14.85;5.05;;;13.70;99.90;;;;;;5077864;28;20043;-71
2023/05/28 05:49:02;;;;;;;16.98;5.30;;;13.80;99.90;;;;;;5077579;28;20542;-71
2023/05/28 05:51:28;;;;;;;17.02;5.57;;;13.90;99.90;;;;;;5077479;28;20036;-71
2023/05/28 05:53:53;;;;;;;14.57;4.90;;;14.00;99.90;;;;;;5060877;28;20043;-71
2023/05/28 05:56:19;;;;;;;16.60;5.10;;;14.00;99.90;;;;;;5077421;28;20062;-71
2023/05/28 05:58:45;;;;;;;15.80;5.10;;;14.00;99.90;;;;;;5077306;28;20040;-71
2023/05/28 06:01:11;;;;;;;17.17;5.38;;;14.10;99.90;;;;;;5077147;28;20485;-71
2023/05/28 06:03:36;;;;;;;18.67;5.38;;;14.10;99.90;;;;;;5060529;28;20032;-71
2023/05/28 06:06:02;;;;;;;16.35;4.95;;;14.20;99.90;;;;;;5077263;28;20036;-71
2023/05/28 06:08:28;;;;;;;16.90;5.45;;;14.20;99.90;;;;;;5077214;28;20105;-71
2023/05/28 06:10:53;;;;;;;15.00;5.20;;;14.20;99.90;;;;;;5077031;28;20043;-71
2023/05/28 06:13:19;;;;;;;15.40;5.22;;;14.20;99.90;;;;;;5077141;28;20123;-71
2023/05/28 06:15:45;;;;;;;15.80;4.65;;;14.30;99.90;;;;;;5060365;28;20040;-70
2023/05/28 06:18:11;;;;;;;14.73;5.13;;;14.30;99.90;;;;;;5076946;28;20117;-70
2023/05/28 06:20:37;;;;;;;15.75;5.70;;;14.30;99.90;;;;;;5076842;28;20040;-70
2023/05/28 06:23:03;;;;;;;13.57;5.18;;;14.50;99.90;;;;;;5076878;28;20028;-70
2023/05/28 06:25:28;;;;;;;12.93;4.90;;;14.50;99.90;;;;;;5077149;28;20040;-70
2023/05/28 06:27:54;;;;;;;13.95;4.90;;;14.60;99.90;;;;;;5076836;28;20469;-70
2023/05/28 06:30:20;;;;;;;14.40;5.55;;;14.70;99.90;;;;;;5076622;28;20144;-70
2023/05/28 06:32:45;;;;;;;14.55;4.95;;;14.80;99.90;;;;;;5076978;28;20036;-70
2023/05/28 06:35:11;;;;;;;13.18;5.10;;;14.90;99.90;;;;;;5077044;28;20077;-70
2023/05/28 06:37:37;;;;;;;16.65;5.72;;;14.90;99.90;;;;;;5076663;28;20497;-70
2023/05/28 06:40:06;;;;;;;13.85;5.00;;;15.00;99.90;;;;;;5076583;28;20408;-70
2023/05/28 06:42:32;;;;;;;12.50;4.38;;;15.10;99.90;;;;;;5094699;28;20044;-70
2023/05/28 06:44:59;;;;;;;11.68;4.97;;;15.10;99.80;;;;;;5076483;28;20047;-71
2023/05/28 06:47:24;;;;;;;12.90;4.75;;;15.20;99.50;;;;;;5076438;28;20086;-70
2023/05/28 06:49:51;;;;;;;12.05;4.53;;;15.20;98.90;;;;;;5076478;28;20075;-70
2023/05/28 06:52:18;;;;;;;13.32;4.55;;;15.30;98.30;;;;;;5076452;28;20050;-70
2023/05/28 06:54:45;;;;;;;15.05;4.88;;;15.40;98.00;;;;;;5076499;28;20519;-70
2023/05/28 06:57:10;;;;;;;15.70;5.20;;;15.50;97.90;;;;;;5076571;28;20557;-71
2023/05/28 06:59:36;;;;;;;14.10;4.90;;;15.60;97.70;;;;;;5076192;28;20039;-71
2023/05/28 07:02:01;;;;;;;14.85;5.15;;;15.60;97.40;;;;;;5075986;28;20115;-71
2023/05/28 07:04:28;;;;;;;13.23;5.47;;;15.70;97.30;;;;;;5076380;28;20036;-70
2023/05/28 07:06:53;;;;;;;12.32;5.65;;;15.80;97.10;;;;;;5059389;28;20097;-71
2023/05/28 07:09:19;;;;;;;16.20;5.40;;;15.90;96.80;;;;;;5076036;28;20040;-71
2023/05/28 07:11:45;;;;;;;13.95;5.25;;;16.00;95.90;;;;;;5076509;28;20048;-71
2023/05/28 07:14:11;;;;;;;16.42;5.60;;;16.10;95.20;;;;;;5075881;28;20036;-71
2023/05/28 07:16:36;;;;;;;12.45;5.40;;;16.20;94.90;;;;;;5075733;28;20051;-71
2023/05/28 07:19:02;;;;;;;13.88;5.47;;;16.30;94.10;;;;;;5094273;28;20036;-71
2023/05/28 07:21:27;;;;;;;11.95;5.70;;;16.40;93.70;;;;;;5075682;28;20036;-71
2023/05/28 07:23:53;;;;;;;12.65;5.40;;;16.40;92.90;;;;;;5076035;28;20122;-71
2023/05/28 07:26:19;;;;;;;12.27;5.15;;;16.50;92.60;;;;;;5059559;28;20048;-70
2023/05/28 07:28:44;;;;;;;14.75;6.03;;;16.60;92.40;;;;;;5058993;28;20420;-70
2023/05/28 07:31:10;;;;;;;10.85;5.15;;;16.70;92.10;;;;;;5058943;28;20078;-71
2023/05/28 07:33:35;;;;;;;14.38;5.43;;;16.80;92.00;;;;;;5075620;28;20036;-71
2023/05/28 07:36:01;;;;;;;12.98;5.47;;;16.90;91.50;;;;;;5093668;28;20174;-71
2023/05/28 07:38:27;;;;;;;14.93;5.72;;;17.00;91.30;;;;;;5075415;28;20043;-71
2023/05/28 07:40:52;;;;;;;12.65;5.75;;;17.10;91.00;;;;;;5075670;28;20054;-71
2023/05/28 07:43:18;;;;;;;15.07;6.07;;;17.20;90.50;;;;;;5074873;28;20032;-71
2023/05/28 07:45:43;;;;;;;11.93;5.80;;;17.30;90.70;;;;;;5076507;28;20036;-71
2023/05/28 07:48:09;;;;;;;13.95;5.60;;;17.40;90.70;;;;;;5075383;28;20507;-71
2023/05/28 07:50:35;;;;;;;11.25;5.25;;;17.50;90.00;;;;;;5075335;28;20051;-72
2023/05/28 07:53:03;;;;;;;12.10;5.85;;;17.60;88.70;;;;;;5075601;28;20040;-72
2023/05/28 07:55:28;;;;;;;12.25;5.75;;;17.70;87.80;;;;;;5075254;28;20552;-72
2023/05/28 07:57:55;;;;;;;12.55;5.82;;;17.80;88.10;;;;;;5075248;28;20131;-72
2023/05/28 08:00:20;;;;;;;12.88;5.53;;;18.00;87.00;;;;;;5058123;28;20036;-72
2023/05/28 08:02:46;;;;;;;13.75;6.05;;;18.10;85.40;;;;;;5075519;28;20039;-72
2023/05/28 08:05:11;;;;;;;13.05;5.90;;;18.20;85.00;;;;;;5075094;28;20377;-72
2023/05/28 08:07:37;;;;;;;9.57;5.55;;;18.30;84.50;;;;;;5075097;28;20032;-71
2023/05/28 08:10:04;;;;;;;12.30;5.80;;;18.40;83.70;;;;;;5058274;28;20040;-71
2023/05/28 08:12:30;;;;;;;12.70;6.10;;;18.50;83.00;;;;;;5058230;28;20044;-71
2023/05/28 08:14:55;;;;;;;14.50;5.97;;;18.60;81.60;;;;;;5075002;28;20046;-71
2023/05/28 08:17:22;;;;;;;11.48;5.78;;;18.70;81.20;;;;;;5074892;28;20039;-70
2023/05/28 08:19:49;;;;;;;11.93;5.72;;;18.80;81.00;;;;;;5075172;28;20036;-71
2023/05/28 08:22:15;;;;;;;11.27;5.43;;;19.00;79.90;;;;;;5075006;28;20147;-71
2023/05/28 08:24:41;;;;;;;12.65;5.57;;;19.00;78.50;;;;;;5074971;28;20036;-71
2023/05/28 08:27:07;;;;;;;9.73;5.50;;;19.10;77.50;;;;;;5074849;28;20115;-71
2023/05/28 08:29:32;;;;;;;14.15;5.00;;;19.20;76.10;;;;;;5075233;28;20044;-70
2023/05/28 08:31:58;;;;;;;11.82;5.63;;;19.30;75.20;;;;;;5074842;28;20491;-70
2023/05/28 08:34:25;;;;;;;9.75;5.07;;;19.40;75.20;;;;;;5074871;28;20067;-71
2023/05/28 08:36:51;;;;;;;13.23;5.32;;;19.50;75.30;;;;;;5058221;28;20113;-71
2023/05/28 08:39:17;;;;;;;12.02;5.18;;;19.60;75.40;;;;;;5058460;28;20430;-71
2023/05/28 08:41:43;;;;;;;9.63;4.68;;;19.70;75.00;;;;;;5075021;28;20048;-71
2023/05/28 08:44:09;;;;;;;9.35;5.07;;;19.80;75.40;;;;;;5074991;28;20039;-71
2023/05/28 08:46:36;;;;;;;12.40;5.13;;;20.00;75.30;;;;;;5074678;28;20551;-70
2023/05/28 08:49:02;;;;;;;10.10;4.50;;;20.10;73.90;;;;;;5074711;28;20038;-71
2023/05/28 08:51:32;;;;;;;12.13;5.10;;;20.20;74.00;;;;;;5058183;28;20102;-70
2023/05/28 08:53:59;;;;;;;15.00;5.47;;;20.30;73.30;;;;;;5078190;28;20047;-70
2023/05/28 08:56:25;;;;;;;10.75;4.68;;;20.40;71.90;;;;;;5078360;28;20040;-70
2023/05/28 08:58:52;;;;;;;11.07;4.80;;;20.50;71.80;;;;;;5097321;28;20426;-70
2023/05/28 09:01:17;;;;;;;9.65;4.35;;;20.50;70.90;;;;;;5078267;28;20043;-70
2023/05/28 09:03:43;;;;;;;13.98;4.82;;;20.60;69.90;;;;;;5061687;28;20036;-71
2023/05/28 09:06:09;;;;;;;11.45;4.45;;;20.60;70.20;;;;;;5078654;28;20504;-71
2023/05/28 09:08:35;;;;;;;10.15;4.70;;;20.70;69.30;;;;;;5078375;28;20047;-71
2023/05/28 09:11:20;;;;;;;9.77;4.85;;;20.80;67.40;;;;;;5078451;28;20028;-71
2023/05/28 09:13:47;;;;;;;12.10;4.38;;;20.90;67.20;;;;;;5078341;28;20424;-71
2023/05/28 09:16:24;;;;;;;7.97;4.22;;;20.90;67.00;;;;;;5061758;28;20443;-71
2023/05/28 09:18:51;;;;;;;12.75;4.40;;;21.10;67.50;;;;;;5078062;28;20516;-70
2023/05/28 09:21:19;;;;;;;10.05;4.85;;;21.20;66.30;;;;;;5078238;28;20109;-70
2023/05/28 09:23:46;;;;;;;9.68;3.90;;;21.30;66.10;;;;;;5078115;28;20412;-71
2023/05/28 09:26:11;;;;;;;7.28;4.03;;;21.40;64.90;;;;;;5078129;28;20569;-71
2023/05/28 09:28:42;;;;;;;9.05;4.30;;;21.50;62.90;;;;;;5078046;28;20044;-71
2023/05/28 09:31:08;;;;;;;8.40;4.80;;;21.60;60.50;;;;;;5077899;28;20048;-70
2023/05/28 09:33:33;;;;;;;9.30;4.60;;;21.70;59.30;;;;;;5078099;28;20047;-71
2023/05/28 09:36:01;;;;;;;5.95;4.28;;;21.80;58.60;;;;;;5077828;28;20551;-71
2023/05/28 09:38:37;;;;;;;7.78;4.55;;;22.00;57.80;;;;;;5077709;28;20040;-71
2023/05/28 09:41:03;;;;;;;11.23;4.80;;;22.10;57.10;;;;;;5077926;28;20117;-71
2023/05/28 09:43:29;;;;;;;7.57;4.75;;;22.20;56.00;;;;;;5077737;28;20389;-72
2023/05/28 09:46:08;;;;;;;8.25;4.28;;;22.30;55.60;;;;;;5077890;28;20173;-72
2023/05/28 09:48:33;;;;;;;10.23;4.43;;;22.50;55.70;;;;;;5077640;28;20043;-70
2023/05/28 09:51:04;;;;;;;8.40;4.00;;;22.50;54.90;;;;;;5077796;28;20040;-71
2023/05/28 09:53:33;;;;;;;6.60;4.30;;;22.50;54.30;;;;;;5077544;28;20089;-71
2023/05/28 09:56:00;;;;;;;8.15;4.55;;;22.40;54.30;;;;;;5077430;28;20082;-70
2023/05/28 09:58:36;;;;;;;7.43;4.72;;;22.40;53.90;;;;;;5077382;28;20044;-71
2023/05/28 10:01:11;;;;;;;8.05;4.85;;;22.40;53.80;;;;;;5060514;28;20175;-71
2023/05/28 10:03:38;;;;;;;7.75;4.93;;;22.50;54.70;;;;;;5077251;28;20077;-71
2023/05/28 10:06:10;;;;;;;9.32;4.97;;;22.60;53.50;;;;;;5076722;28;20047;-70
2023/05/28 10:08:37;;;;;;;10.40;5.22;;;22.80;52.90;;;;;;5077264;28;20044;-70
2023/05/28 10:11:05;;;;;;;9.07;5.03;;;22.90;53.10;;;;;;5077083;28;20044;-71
2023/05/28 10:13:31;;;;;;;7.45;5.10;;;23.10;52.30;;;;;;5077393;28;20036;-71
2023/05/28 10:15:57;;;;;;;7.25;4.70;;;23.30;53.50;;;;;;5077011;28;20040;-71
2023/05/28 10:18:25;;;;;;;9.85;4.30;;;23.50;52.40;;;;;;5077063;28;20044;-71
2023/05/28 10:20:51;;;;;;;9.55;5.20;;;23.60;52.90;;;;;;5076953;28;20040;-70
2023/05/28 10:23:19;;;;;;;11.85;5.03;;;23.70;51.50;;;;;;5076958;28;20035;-71
2023/05/28 10:25:45;;;;;;;8.35;4.43;;;23.80;51.70;;;;;;5095314;28;20032;-70
2023/05/28 10:28:14;;;;;;;8.95;4.57;;;23.90;51.60;;;;;;5076831;28;20096;-71
2023/05/28 10:30:40;;;;;;;10.18;4.80;;;24.00;51.90;;;;;;5076691;28;20036;-71
2023/05/28 10:33:14;;;;;;;9.45;5.20;;;24.10;50.90;;;;;;5076758;28;20040;-71
2023/05/28 10:35:55;;;;;;;8.20;4.53;;;24.20;50.40;;;;;;5076724;28;20032;-71
2023/05/28 10:38:21;;;;;;;11.93;5.30;;;24.30;50.50;;;;;;5076580;28;20071;-71
2023/05/28 10:40:48;;;;;;;9.55;5.05;;;24.40;50.80;;;;;;5076494;28;20047;-71
2023/05/28 10:43:38;;;;;;;12.88;5.38;;;24.50;50.30;;;;;;5076825;28;20039;-71
2023/05/28 10:46:24;;;;;;;8.57;5.43;;;24.60;49.40;;;;;;5076299;28;20043;-71
2023/05/28 10:49:08;;;;;;;9.88;5.25;;;24.70;48.90;;;;;;5059351;28;20044;-71
2023/05/28 10:51:51;;;;;;;11.00;5.30;;;24.80;49.80;;;;;;5059671;28;20505;-71
2023/05/28 10:54:24;;;;;;;8.48;5.03;;;24.90;47.80;;;;;;5076541;28;20484;-71
2023/05/28 10:57:13;;;;;;;7.60;5.05;;;25.10;47.80;;;;;;5076267;28;20043;-71
2023/05/28 11:00:00;;;;;;;9.27;5.47;;;25.10;47.10;;;;;;5076258;28;20088;-71
2023/05/28 11:02:33;;;;;;;9.10;5.72;;;25.10;47.80;;;;;;5076089;28;20120;-71
2023/05/28 11:05:01;;;;;;;8.52;5.78;;;25.30;46.60;;;;;;5059340;28;20028;-71
2023/05/28 11:07:32;;;;;;;11.00;5.70;;;25.30;46.20;;;;;;5076117;28;20044;-71
2023/05/28 11:10:00;;;;;;;7.93;5.37;;;25.40;45.40;;;;;;5075930;28;20043;-71
2023/05/28 11:12:30;;;;;;;8.57;4.70;;;25.40;45.10;;;;;;5075930;28;20696;-71
2023/05/28 11:14:56;;;;;;;9.68;4.82;;;25.40;44.10;;;;;;5075986;28;20044;-71
2023/05/28 11:17:22;;;;;;;7.13;4.30;;;25.50;44.10;;;;;;5074931;28;20080;-71
2023/05/28 11:19:49;;;;;;;7.13;4.57;;;25.50;44.00;;;;;;5059232;28;20042;-71
2023/05/28 11:22:17;;;;;;;7.35;4.78;;;25.50;44.00;;;;;;5075674;28;20039;-70
2023/05/28 11:25:09;;;;;;;8.80;4.97;;;25.70;43.40;;;;;;5075777;28;20093;-70
2023/05/28 11:27:36;;;;;;;6.85;4.90;;;25.80;41.90;;;;;;5058989;28;20036;-71
2023/05/28 11:30:16;;;;;;;6.88;4.70;;;25.80;41.70;;;;;;5075547;28;20157;-71
2023/05/28 11:32:43;;;;;;;8.90;4.68;;;25.90;41.40;;;;;;5075720;28;20085;-71
2023/05/28 11:35:11;;;;;;;7.25;4.55;;;25.90;42.10;;;;;;5075618;28;20043;-71
2023/05/28 11:37:38;;;;;;;6.97;5.32;;;26.00;41.90;;;;;;5075652;28;20036;-71
2023/05/28 11:40:09;;;;;;;9.35;5.60;;;26.00;42.30;;;;;;5093580;28;20052;-70
2023/05/28 11:42:36;;;;;;;8.38;5.22;;;26.10;41.60;;;;;;5075539;28;20035;-70
2023/05/28 11:45:02;;;;;;;7.65;5.25;;;26.10;41.90;;;;;;5075708;28;20040;-70
2023/05/28 11:47:32;;;;;;;6.72;4.32;;;26.10;41.30;;;;;;5058665;28;20036;-71
2023/05/28 11:49:58;;;;;;;6.57;5.07;;;26.20;38.60;;;;;;5075368;28;20036;-70
2023/05/28 11:52:25;;;;;;;8.57;5.70;;;26.20;41.70;;;;;;5075551;28;20039;-70
2023/05/28 11:54:56;;;;;;;8.20;5.45;;;26.20;41.30;;;;;;5075535;28;20408;-70
2023/05/28 11:57:28;;;;;;;6.65;5.10;;;26.20;40.60;;;;;;5075297;28;20032;-71
2023/05/28 12:00:15;;;;;;;8.50;5.13;;;26.20;39.00;;;;;;5075283;28;20086;-71
2023/05/28 12:02:52;;;;;;;9.63;5.30;;;26.30;39.40;;;;;;5075268;28;20447;-71
2023/05/28 12:05:19;;;;;;;7.57;4.95;;;26.30;40.10;;;;;;5075410;28;20040;-71
2023/05/28 12:07:50;;;;;;;7.85;5.05;;;26.40;40.70;;;;;;5075142;28;20036;-71
2023/05/28 12:10:19;;;;;;;9.60;5.07;;;26.50;41.00;;;;;;5075096;28;20044;-71
2023/05/28 12:12:55;;;;;;;7.78;5.18;;;26.60;41.40;;;;;;5075073;28;20044;-71
2023/05/28 12:15:26;;;;;;;7.20;3.95;;;26.60;42.00;;;;;;5075304;28;20101;-71
2023/05/28 12:18:02;;;;;;;7.35;4.18;;;26.60;42.50;;;;;;5075236;28;20135;-71
2023/05/28 12:20:30;;;;;;;8.57;4.00;;;26.70;40.70;;;;;;5075020;28;20042;-71
2023/05/28 12:23:07;;;;;;;6.90;3.40;;;26.70;40.70;;;;;;5093116;28;20559;-71
2023/05/28 12:25:45;;;;;;;9.52;3.78;;;26.70;39.90;;;;;;5075018;28;20048;-70
2023/05/28 12:28:12;;;;;;;5.63;3.40;;;26.70;40.40;;;;;;5076252;28;20044;-71
2023/05/28 12:30:39;;;;;;;5.90;3.55;;;26.60;40.30;;;;;;5079001;28;20052;-71
2023/05/28 12:33:05;;;;;;;7.65;3.78;;;26.70;41.90;;;;;;5079129;28;20044;-71
2023/05/28 12:35:31;;;;;;;7.15;3.30;;;26.70;41.90;;;;;;5079042;28;20123;-71
2023/05/28 12:37:56;;;;;;;6.03;3.22;;;26.80;43.00;;;;;;5078903;28;20040;-71